Time;durP1;ratioP1;P1;durP2;ratioP2;P2;SDS_P1;SDS_P2;PMS_P1;PMS_P2;Temp;Humidity;BMP_temperature;BMP_pressure;BME280_temperature;BME280_humidity;BME280_pressure;Samples;Min_cycle;Max_cycle;Signal;HPM_P1;HPM_P2
2024/02/09 00:01:56;;;;;;;15.50;4.07;;;9.20;99.90;;;;;;5042306;28;20087;-82
2024/02/09 00:04:21;;;;;;;22.58;3.20;;;9.20;99.90;;;;;;5043393;28;20021;-82
2024/02/09 00:06:47;;;;;;;21.92;3.88;;;9.20;99.90;;;;;;5045152;28;20644;-82
2024/02/09 00:09:13;;;;;;;16.98;2.92;;;9.20;99.90;;;;;;5063048;28;20025;-82
2024/02/09 00:11:39;;;;;;;21.15;3.67;;;9.30;99.90;;;;;;5060363;28;20036;-83
2024/02/09 00:14:05;;;;;;;18.90;3.50;;;9.20;99.90;;;;;;5051263;28;20032;-82
2024/02/09 00:16:31;;;;;;;12.25;3.38;;;9.20;99.90;;;;;;5083431;28;20402;-83
2024/02/09 00:18:57;;;;;;;13.52;3.55;;;9.20;99.90;;;;;;5082045;28;20389;-82
2024/02/09 00:21:23;;;;;;;18.45;3.40;;;9.30;99.90;;;;;;5063606;28;20025;-82
2024/02/09 00:23:48;;;;;;;19.42;3.88;;;9.20;99.90;;;;;;5063449;28;20084;-82
2024/02/09 00:26:14;;;;;;;13.13;3.28;;;9.20;99.90;;;;;;5062498;28;20019;-83
2024/02/09 00:28:39;;;;;;;12.13;3.15;;;9.20;99.90;;;;;;5065442;28;20170;-83
2024/02/09 00:31:05;;;;;;;13.30;3.85;;;9.20;99.90;;;;;;5071833;28;20029;-82
2024/02/09 00:33:31;;;;;;;12.73;3.78;;;9.30;99.90;;;;;;5070779;28;20033;-83
2024/02/09 00:35:57;;;;;;;15.27;3.90;;;9.20;99.90;;;;;;5042737;28;20029;-82
2024/02/09 00:38:22;;;;;;;16.58;4.18;;;9.30;99.90;;;;;;5042482;28;20128;-82
2024/02/09 00:40:48;;;;;;;10.27;3.75;;;9.30;99.90;;;;;;5060858;28;20025;-82
2024/02/09 00:43:15;;;;;;;21.42;4.07;;;9.30;99.90;;;;;;5062081;28;20410;-82
2024/02/09 00:45:41;;;;;;;14.10;4.10;;;9.30;99.90;;;;;;5061355;28;20025;-82
2024/02/09 00:48:07;;;;;;;14.65;4.03;;;9.30;99.90;;;;;;5044379;28;20025;-82
2024/02/09 00:50:33;;;;;;;13.77;3.53;;;9.30;99.90;;;;;;5043738;28;20047;-82
2024/02/09 00:53:08;;;;;;;14.65;3.55;;;9.30;99.90;;;;;;5053032;28;20042;-81
2024/02/09 00:55:36;;;;;;;18.95;4.30;;;9.30;99.90;;;;;;5062592;28;20033;-82
2024/02/09 00:58:01;;;;;;;14.88;3.35;;;9.30;99.90;;;;;;5063239;28;20036;-82
2024/02/09 01:00:30;;;;;;;10.63;4.00;;;9.30;99.90;;;;;;5063964;28;20021;-82
2024/02/09 01:02:57;;;;;;;21.92;5.43;;;9.30;99.90;;;;;;5063807;28;20031;-81
2024/02/09 01:05:24;;;;;;;14.90;4.90;;;9.30;99.90;;;;;;5055112;28;20071;-82
2024/02/09 01:07:50;;;;;;;12.32;3.47;;;9.30;99.90;;;;;;5042888;28;20029;-82
2024/02/09 01:10:16;;;;;;;19.90;5.20;;;9.20;99.90;;;;;;5042516;28;20094;-82
2024/02/09 02:45:56;;;;;;;11.50;3.05;;;9.20;99.90;;;;;;5063723;28;20021;-81
2024/02/09 03:04:51;;;;;;;12.27;3.13;;;9.20;99.90;;;;;;5080234;28;20081;-82
2024/02/09 03:07:17;;;;;;;7.55;2.90;;;9.10;99.90;;;;;;5062575;28;20088;-82
2024/02/09 03:09:42;;;;;;;11.73;3.08;;;9.20;99.90;;;;;;5081091;28;20025;-83
2024/02/09 03:12:12;;;;;;;10.07;2.15;;;9.20;99.90;;;;;;5080380;28;20024;-83
2024/02/09 03:14:37;;;;;;;13.32;2.88;;;9.20;99.90;;;;;;5080748;28;20078;-83
2024/02/09 03:17:03;;;;;;;4.68;2.47;;;9.20;99.90;;;;;;5061994;28;20024;-82
2024/02/09 03:19:29;;;;;;;6.65;2.20;;;9.30;99.90;;;;;;5082517;28;20021;-82
2024/02/09 03:21:56;;;;;;;7.57;2.58;;;9.20;99.90;;;;;;5083109;28;20017;-83
2024/02/09 03:24:21;;;;;;;8.90;2.40;;;9.30;99.90;;;;;;5064558;28;20017;-82
2024/02/09 03:26:47;;;;;;;10.90;2.15;;;9.30;99.90;;;;;;5081772;28;20120;-82
2024/02/09 03:29:12;;;;;;;8.55;1.88;;;9.20;99.90;;;;;;5064886;28;20032;-82
2024/02/09 03:31:38;;;;;;;10.27;2.13;;;9.20;99.90;;;;;;5066356;28;20044;-82
2024/02/09 03:34:04;;;;;;;8.60;1.80;;;9.30;99.90;;;;;;5063450;28;20059;-83
2024/02/09 03:36:34;;;;;;;6.32;1.60;;;9.30;99.90;;;;;;5065146;28;20032;-82
2024/02/09 03:39:02;;;;;;;5.78;2.28;;;9.30;99.90;;;;;;5065205;28;20064;-83
2024/02/09 03:41:28;;;;;;;10.02;2.20;;;9.30;99.90;;;;;;5077502;28;20032;-82
2024/02/09 03:43:54;;;;;;;8.15;2.05;;;9.30;99.90;;;;;;5044413;28;20037;-82
2024/02/09 03:46:20;;;;;;;7.07;2.20;;;9.30;99.90;;;;;;5043501;28;20029;-82
2024/02/09 03:48:45;;;;;;;6.22;1.58;;;9.30;99.90;;;;;;5043896;28;20092;-82
2024/02/09 03:51:11;;;;;;;6.93;1.95;;;9.30;99.90;;;;;;5061462;28;20128;-82
2024/02/09 03:53:36;;;;;;;3.35;1.58;;;9.30;99.90;;;;;;5061280;28;20036;-82
2024/02/09 03:56:02;;;;;;;5.82;2.40;;;9.30;99.90;;;;;;5067000;28;20032;-82
2024/02/09 03:58:28;;;;;;;3.92;1.33;;;9.20;99.90;;;;;;5061137;28;20025;-82
2024/02/09 04:00:53;;;;;;;4.97;2.45;;;9.30;99.90;;;;;;5060933;28;20052;-82
2024/02/09 04:03:19;;;;;;;3.78;1.58;;;9.20;99.90;;;;;;5043883;28;20893;-81
2024/02/09 04:05:46;;;;;;;5.20;1.40;;;9.30;99.90;;;;;;5060254;28;20040;-83
2024/02/09 04:08:11;;;;;;;4.53;1.83;;;9.20;99.90;;;;;;5059622;28;20033;-83
2024/02/09 04:10:37;;;;;;;2.63;1.52;;;9.30;99.90;;;;;;5045093;28;20047;-82
2024/02/09 04:13:06;;;;;;;6.85;1.55;;;9.30;99.90;;;;;;5044912;28;20469;-82
2024/02/09 04:15:31;;;;;;;6.18;2.15;;;9.30;99.90;;;;;;5062496;28;20025;-81
2024/02/09 04:18:03;;;;;;;8.35;1.75;;;9.30;99.90;;;;;;5065089;28;20056;-82
2024/02/09 04:20:29;;;;;;;5.20;1.50;;;9.30;99.90;;;;;;5040189;28;20037;-82
2024/02/09 04:22:54;;;;;;;6.90;1.10;;;9.30;99.90;;;;;;5062428;28;20043;-82
2024/02/09 04:25:20;;;;;;;3.00;1.05;;;9.30;99.90;;;;;;5059828;28;20033;-82
2024/02/09 04:27:46;;;;;;;3.47;1.45;;;9.20;99.90;;;;;;5049906;28;20060;-82
2024/02/09 04:30:15;;;;;;;9.10;1.60;;;9.20;99.90;;;;;;5062409;28;20033;-82
2024/02/09 04:32:41;;;;;;;5.10;1.25;;;9.20;99.90;;;;;;5067469;28;20083;-82
2024/02/09 04:35:07;;;;;;;14.45;1.80;;;9.20;99.90;;;;;;5044922;28;20020;-82
2024/02/09 04:37:33;;;;;;;4.72;1.40;;;9.20;99.90;;;;;;5067411;28;20028;-82
2024/02/09 04:39:58;;;;;;;4.03;1.45;;;9.20;99.90;;;;;;5061244;28;20056;-81
2024/02/09 04:42:24;;;;;;;5.68;1.33;;;9.20;99.90;;;;;;5060112;28;20025;-82
2024/02/09 04:44:50;;;;;;;3.95;1.60;;;9.20;99.90;;;;;;5063274;28;20044;-82
2024/02/09 04:47:16;;;;;;;5.03;1.45;;;9.20;99.90;;;;;;5067474;28;20025;-82
2024/02/09 04:49:44;;;;;;;5.72;1.58;;;9.20;99.90;;;;;;5070620;28;20043;-82
2024/02/09 04:52:11;;;;;;;9.02;2.08;;;9.20;99.90;;;;;;5064004;28;20560;-82
2024/02/09 04:54:37;;;;;;;3.60;1.33;;;9.20;99.90;;;;;;5064666;28;20031;-82
2024/02/09 04:57:03;;;;;;;2.63;1.23;;;9.20;99.90;;;;;;5063691;28;20084;-82
2024/02/09 04:59:30;;;;;;;5.45;1.30;;;9.20;99.90;;;;;;5081314;28;20025;-82
2024/02/09 05:01:55;;;;;;;2.58;1.42;;;9.20;99.90;;;;;;5035008;28;20066;-82
2024/02/09 05:04:21;;;;;;;2.50;1.73;;;9.20;99.90;;;;;;5056661;28;20024;-82
2024/02/09 05:06:47;;;;;;;2.80;1.27;;;9.20;99.90;;;;;;5044724;28;20021;-82
2024/02/09 05:09:12;;;;;;;5.80;1.27;;;9.20;99.90;;;;;;5045905;28;20024;-82
2024/02/09 05:11:39;;;;;;;2.28;1.30;;;9.10;99.90;;;;;;5044827;28;20041;-81
2024/02/09 05:14:06;;;;;;;2.70;1.15;;;9.20;99.90;;;;;;5045226;28;20032;-82
2024/02/09 05:16:40;;;;;;;1.20;0.90;;;9.10;99.90;;;;;;5062686;28;20074;-81
2024/02/09 05:19:12;;;;;;;4.40;1.10;;;9.20;99.90;;;;;;5045936;28;20029;-81
2024/02/09 05:21:39;;;;;;;5.60;1.10;;;9.10;99.90;;;;;;5030630;28;20048;-82
2024/02/09 05:24:05;;;;;;;1.27;0.90;;;9.20;99.90;;;;;;5062464;28;20021;-82
2024/02/09 05:26:31;;;;;;;2.85;1.10;;;9.20;99.90;;;;;;5044051;28;20032;-81
2024/02/09 05:28:56;;;;;;;11.55;1.38;;;9.20;99.90;;;;;;5060581;28;20048;-82
2024/02/09 05:31:25;;;;;;;6.95;1.00;;;9.10;99.90;;;;;;5044616;28;20057;-81
2024/02/09 05:33:51;;;;;;;1.73;0.90;;;9.20;99.90;;;;;;5061042;28;20132;-82
2024/02/09 05:36:25;;;;;;;6.35;1.13;;;9.20;99.90;;;;;;5044410;28;20060;-82
2024/02/09 05:38:52;;;;;;;3.78;1.67;;;9.20;99.90;;;;;;5043496;28;20491;-81
2024/02/09 05:41:20;;;;;;;2.05;0.65;;;9.20;99.90;;;;;;5043828;28;20048;-81
2024/02/09 05:43:47;;;;;;;2.25;1.17;;;9.20;99.90;;;;;;5043188;28;20017;-81
2024/02/09 05:46:13;;;;;;;2.63;1.02;;;9.20;99.90;;;;;;5061964;28;20025;-81
2024/02/09 05:48:41;;;;;;;2.35;0.95;;;9.20;99.90;;;;;;5062879;28;20052;-81
2024/02/09 05:51:17;;;;;;;4.20;1.02;;;9.30;99.90;;;;;;5044411;28;20057;-82
2024/02/09 05:53:43;;;;;;;2.00;0.60;;;9.20;99.90;;;;;;5045259;28;20051;-82
2024/02/09 05:56:29;;;;;;;4.15;1.00;;;9.30;99.90;;;;;;5043057;28;20025;-81
2024/02/09 05:58:56;;;;;;;1.50;0.90;;;9.30;99.90;;;;;;5044838;28;20032;-82
2024/02/09 06:01:32;;;;;;;3.90;1.10;;;9.30;99.90;;;;;;5061175;28;20014;-81
2024/02/09 06:03:57;;;;;;;1.75;0.82;;;9.30;99.90;;;;;;5060140;28;20048;-82
2024/02/09 06:06:23;;;;;;;3.13;0.90;;;9.30;99.90;;;;;;5061333;28;20017;-82
2024/02/09 06:08:50;;;;;;;5.05;1.13;;;9.30;99.90;;;;;;5061050;28;20059;-81
2024/02/09 06:11:16;;;;;;;2.70;1.10;;;9.30;99.90;;;;;;5043302;28;20061;-82
2024/02/09 06:13:45;;;;;;;5.78;2.20;;;9.30;99.90;;;;;;5061404;28;20067;-81
2024/02/09 06:16:12;;;;;;;3.05;0.88;;;9.30;99.90;;;;;;5043632;28;20029;-81
2024/02/09 06:18:38;;;;;;;2.03;0.70;;;9.30;99.90;;;;;;5060770;28;20052;-82
2024/02/09 06:21:04;;;;;;;3.20;1.00;;;9.30;99.90;;;;;;5016098;28;20047;-81
2024/02/09 06:23:32;;;;;;;2.50;1.40;;;9.30;99.90;;;;;;5042345;28;20387;-81
2024/02/09 06:25:58;;;;;;;1.70;0.70;;;9.30;99.90;;;;;;5043750;28;20108;-81
2024/02/09 06:28:24;;;;;;;2.53;1.15;;;9.20;99.90;;;;;;5043789;28;20029;-82
2024/02/09 06:30:49;;;;;;;2.42;1.33;;;9.10;99.90;;;;;;5064165;28;20032;-82
2024/02/09 06:33:16;;;;;;;1.88;0.82;;;9.00;99.90;;;;;;5044391;28;20036;-82
2024/02/09 06:35:43;;;;;;;4.82;0.98;;;8.90;99.90;;;;;;5046015;28;20048;-81
2024/02/09 06:38:11;;;;;;;3.13;1.10;;;8.80;99.90;;;;;;5062627;28;20048;-81
2024/02/09 06:40:38;;;;;;;1.20;0.63;;;8.60;99.90;;;;;;5060902;28;20098;-82
2024/02/09 06:43:04;;;;;;;2.45;1.05;;;8.50;99.90;;;;;;5044904;28;20021;-82
2024/02/09 06:45:29;;;;;;;2.35;0.90;;;8.50;99.90;;;;;;5043451;28;20021;-81
2024/02/09 06:47:56;;;;;;;4.40;1.05;;;8.50;99.90;;;;;;5063403;28;20089;-82
2024/02/09 06:50:21;;;;;;;1.42;0.90;;;8.40;99.90;;;;;;5044609;28;20033;-82
2024/02/09 06:52:50;;;;;;;3.05;0.90;;;8.40;99.90;;;;;;5044507;28;20055;-82
2024/02/09 06:55:17;;;;;;;2.53;0.90;;;8.50;99.90;;;;;;5047501;28;20050;-81
2024/02/09 06:57:44;;;;;;;3.13;1.05;;;8.60;99.90;;;;;;5048205;28;20025;-81
2024/02/09 07:00:14;;;;;;;7.45;1.65;;;8.60;99.90;;;;;;5067078;28;20032;-81
2024/02/09 07:02:45;;;;;;;2.63;1.33;;;8.70;99.90;;;;;;5053290;22;20045;-60
2024/02/09 07:05:14;;;;;;;5.28;1.40;;;8.80;99.90;;;;;;5031848;28;20033;-59
2024/02/09 07:07:43;;;;;;;3.05;1.40;;;8.90;99.90;;;;;;5033768;28;20025;-59
2024/02/09 07:10:10;;;;;;;4.43;1.27;;;8.90;99.90;;;;;;5039232;28;20476;-62
2024/02/09 07:12:36;;;;;;;2.15;1.42;;;9.00;99.90;;;;;;5031518;28;20482;-59
2024/02/09 07:17:37;;;;;;;2.25;1.25;;;9.10;99.90;;;;;;5070779;28;20055;-63
2024/02/09 07:20:04;;;;;;;2.78;1.05;;;9.10;99.90;;;;;;5069587;28;20029;-63
2024/02/09 07:22:30;;;;;;;1.67;0.98;;;9.10;99.90;;;;;;5054127;28;20044;-63
2024/02/09 07:24:56;;;;;;;5.43;1.10;;;9.10;99.90;;;;;;5073948;28;20036;-63
2024/02/09 07:27:22;;;;;;;2.17;1.48;;;9.10;99.90;;;;;;5090375;28;20020;-63
2024/02/09 07:29:48;;;;;;;2.30;1.25;;;9.10;99.90;;;;;;5094306;28;20050;-62
2024/02/09 07:32:13;;;;;;;1.70;0.82;;;9.10;99.90;;;;;;5090512;28;20836;-63
2024/02/09 07:34:39;;;;;;;2.05;1.02;;;9.20;99.90;;;;;;5092057;28;20504;-63
2024/02/09 07:37:05;;;;;;;7.22;1.00;;;9.10;99.90;;;;;;5091297;28;20030;-63
2024/02/09 07:39:32;;;;;;;4.20;1.40;;;9.20;99.90;;;;;;5092305;28;20032;-63
2024/02/09 07:41:58;;;;;;;15.50;1.55;;;9.20;99.90;;;;;;5092327;28;20016;-62
2024/02/09 07:44:24;;;;;;;6.00;1.67;;;9.20;99.90;;;;;;5092786;28;20055;-63
2024/02/09 07:46:50;;;;;;;2.45;1.27;;;9.20;99.90;;;;;;5090886;28;20080;-63
2024/02/09 07:49:16;;;;;;;5.03;2.42;;;9.20;99.90;;;;;;5091876;28;20028;-62
2024/02/09 07:51:43;;;;;;;3.28;1.60;;;9.20;99.90;;;;;;5092444;28;20036;-62
2024/02/09 07:54:09;;;;;;;1.98;1.08;;;9.20;99.90;;;;;;5091994;28;20031;-63
2024/02/09 07:56:34;;;;;;;7.93;3.33;;;9.20;99.90;;;;;;5091246;28;20028;-63
2024/02/09 07:59:00;;;;;;;6.25;3.28;;;9.20;99.90;;;;;;5092191;28;20032;-63
2024/02/09 08:01:25;;;;;;;8.15;2.88;;;9.20;99.90;;;;;;5092557;28;20621;-63
2024/02/09 08:03:56;;;;;;;12.93;5.30;;;9.20;99.90;;;;;;5091775;28;20040;-63
2024/02/09 08:06:22;;;;;;;8.80;3.20;;;9.30;99.90;;;;;;5090110;28;20154;-62
2024/02/09 08:08:52;;;;;;;9.40;4.38;;;9.30;99.90;;;;;;5092481;28;20022;-61
2024/02/09 08:11:19;;;;;;;12.40;4.13;;;9.30;99.90;;;;;;5088794;28;20036;-63
2024/02/09 08:13:45;;;;;;;17.90;8.07;;;9.30;99.90;;;;;;5090067;28;20035;-62
2024/02/09 08:16:10;;;;;;;10.43;5.32;;;9.40;99.90;;;;;;5091240;28;20044;-63
2024/02/09 08:18:36;;;;;;;12.80;4.97;;;9.40;99.90;;;;;;5090790;28;20039;-63
2024/02/09 08:21:02;;;;;;;9.00;3.42;;;9.50;99.90;;;;;;5091297;28;20034;-63
2024/02/09 08:23:29;;;;;;;10.27;5.47;;;9.50;99.90;;;;;;5075242;28;20032;-63
2024/02/09 08:25:55;;;;;;;20.08;6.80;;;9.50;99.90;;;;;;5090666;28;20089;-63
2024/02/09 08:28:20;;;;;;;10.50;5.90;;;9.60;99.90;;;;;;5090022;28;20432;-63
2024/02/09 08:30:46;;;;;;;4.88;3.13;;;9.60;99.90;;;;;;5091720;28;20599;-63
2024/02/09 08:33:12;;;;;;;7.75;2.63;;;9.70;99.90;;;;;;5092297;28;20036;-63
2024/02/09 08:35:40;;;;;;;5.80;2.20;;;9.70;99.90;;;;;;5092962;28;20042;-62
2024/02/09 08:38:07;;;;;;;10.77;5.90;;;9.80;99.90;;;;;;5088522;28;20111;-62
2024/02/09 08:40:33;;;;;;;6.03;3.53;;;9.90;99.90;;;;;;5084419;28;20032;-63
2024/02/09 08:43:00;;;;;;;4.40;2.10;;;9.80;99.90;;;;;;5092003;28;20053;-63
2024/02/09 08:45:27;;;;;;;10.55;3.60;;;9.90;99.90;;;;;;5091648;28;20016;-63
2024/02/09 08:47:52;;;;;;;8.60;2.85;;;9.90;99.90;;;;;;5090392;28;20551;-62
2024/02/09 08:50:20;;;;;;;5.82;2.13;;;9.90;99.90;;;;;;5091288;28;20615;-63
2024/02/09 08:52:46;;;;;;;10.20;3.60;;;10.00;99.90;;;;;;5090050;28;20036;-62
2024/02/09 08:55:11;;;;;;;8.65;2.80;;;10.10;99.90;;;;;;5091152;28;20115;-63
2024/02/09 08:57:37;;;;;;;11.95;4.00;;;10.10;99.90;;;;;;5090380;28;20030;-63
2024/02/09 09:00:07;;;;;;;5.40;2.25;;;10.20;99.90;;;;;;5091029;28;20036;-63
2024/02/09 09:02:32;;;;;;;9.23;3.33;;;10.20;99.90;;;;;;5072755;28;20110;-63
2024/02/09 09:04:58;;;;;;;12.25;4.03;;;10.30;99.90;;;;;;5092139;28;20114;-63
2024/02/09 09:07:23;;;;;;;21.85;6.07;;;10.30;99.90;;;;;;5088543;28;20028;-63
2024/02/09 09:09:49;;;;;;;13.10;4.75;;;10.40;99.90;;;;;;5090964;28;20085;-63
2024/02/09 09:12:15;;;;;;;24.80;7.28;;;10.30;99.90;;;;;;5094141;28;20392;-63
2024/02/09 09:14:40;;;;;;;19.55;6.80;;;10.40;99.90;;;;;;5093525;28;20028;-63
2024/02/09 09:17:06;;;;;;;34.90;10.93;;;10.40;99.90;;;;;;5089346;28;20137;-62
2024/02/09 09:19:31;;;;;;;26.40;6.35;;;10.50;99.90;;;;;;5089237;28;20032;-63
2024/02/09 09:21:57;;;;;;;20.83;5.47;;;10.50;99.90;;;;;;5062763;28;20032;-63
2024/02/09 09:24:23;;;;;;;31.42;9.43;;;10.50;99.90;;;;;;5086254;28;20111;-62
2024/02/09 09:26:49;;;;;;;29.80;9.95;;;10.60;99.90;;;;;;5087181;28;20119;-63
2024/02/09 09:29:15;;;;;;;56.25;17.83;;;10.60;99.90;;;;;;5089750;28;20032;-62
2024/02/09 09:31:41;;;;;;;18.20;6.20;;;10.60;99.90;;;;;;5091141;28;20035;-62
2024/02/09 09:34:08;;;;;;;55.45;16.40;;;10.70;99.90;;;;;;5093725;28;20404;-63
2024/02/09 09:36:34;;;;;;;21.15;6.93;;;10.70;99.90;;;;;;5088473;28;20032;-63
2024/02/09 09:39:05;;;;;;;25.90;7.28;;;10.70;99.90;;;;;;5087110;28;20426;-62
2024/02/09 09:41:35;;;;;;;12.63;5.28;;;10.80;99.90;;;;;;5088506;28;20224;-63
2024/02/09 09:44:01;;;;;;;25.63;8.10;;;10.90;99.90;;;;;;5090438;28;20024;-63
2024/02/09 09:46:30;;;;;;;9.70;3.95;;;10.90;99.90;;;;;;5090011;28;20032;-62
2024/02/09 09:48:56;;;;;;;8.10;3.40;;;11.00;99.90;;;;;;5087624;28;20036;-63
2024/02/09 09:51:25;;;;;;;8.38;3.20;;;11.00;99.90;;;;;;5088673;28;20075;-63
2024/02/09 09:53:54;;;;;;;22.92;7.65;;;11.00;99.90;;;;;;5089532;28;20024;-63
2024/02/09 09:56:22;;;;;;;16.65;5.53;;;11.10;99.90;;;;;;5089476;28;20389;-63
2024/02/09 09:58:48;;;;;;;9.57;2.83;;;11.00;99.90;;;;;;5088584;28;20032;-63
2024/02/09 10:01:14;;;;;;;14.63;5.05;;;11.00;99.90;;;;;;5089311;28;20333;-63
2024/02/09 10:03:40;;;;;;;5.93;2.63;;;11.00;99.90;;;;;;5089517;28;20030;-63
2024/02/09 10:06:05;;;;;;;14.82;5.82;;;11.00;99.90;;;;;;5071206;28;20024;-63
2024/02/09 10:08:35;;;;;;;14.25;7.28;;;11.00;99.90;;;;;;5087509;28;20028;-63
2024/02/09 10:11:06;;;;;;;17.67;7.20;;;11.10;99.90;;;;;;5088123;28;20032;-63
2024/02/09 10:13:33;;;;;;;11.82;4.30;;;11.10;99.90;;;;;;5088519;28;20385;-63
2024/02/09 10:16:03;;;;;;;10.73;5.60;;;11.00;99.90;;;;;;5089977;28;20050;-62
2024/02/09 10:18:33;;;;;;;18.50;7.20;;;11.00;99.90;;;;;;5093235;28;20046;-63
2024/02/09 10:20:59;;;;;;;15.13;6.65;;;11.00;99.90;;;;;;5087269;28;20115;-63
2024/02/09 10:23:28;;;;;;;36.10;12.38;;;10.90;99.90;;;;;;5065146;28;20123;-63
2024/02/09 10:25:55;;;;;;;30.33;10.38;;;11.00;99.90;;;;;;5086165;28;20020;-62
2024/02/09 10:28:23;;;;;;;14.15;5.60;;;11.00;99.90;;;;;;5089258;28;20027;-63
2024/02/09 10:30:48;;;;;;;14.00;5.82;;;11.00;99.90;;;;;;5089523;28;20024;-63
2024/02/09 10:33:14;;;;;;;23.75;9.88;;;11.00;99.90;;;;;;5090378;28;20036;-62
2024/02/09 10:35:40;;;;;;;41.95;12.75;;;11.00;99.90;;;;;;5089870;28;20538;-64
2024/02/09 10:38:06;;;;;;;37.03;13.50;;;11.00;99.90;;;;;;5090410;28;20027;-63
2024/02/09 10:40:34;;;;;;;27.15;10.73;;;11.00;99.90;;;;;;5089918;28;20104;-63
2024/02/09 10:43:04;;;;;;;19.15;9.18;;;11.00;99.90;;;;;;5087113;28;20291;-63
2024/02/09 10:45:32;;;;;;;33.97;12.85;;;11.00;99.90;;;;;;5082819;28;20651;-63
2024/02/09 10:48:01;;;;;;;30.42;12.48;;;11.00;99.90;;;;;;5087367;28;20036;-63
2024/02/09 10:50:30;;;;;;;14.85;6.60;;;11.00;99.90;;;;;;5087224;28;20420;-62
2024/02/09 10:52:59;;;;;;;7.82;3.85;;;11.00;99.90;;;;;;5089438;28;20067;-63
2024/02/09 10:55:33;;;;;;;13.52;5.72;;;11.00;99.90;;;;;;5086835;28;20543;-63
2024/02/09 10:57:59;;;;;;;10.18;3.92;;;11.10;99.90;;;;;;5089859;28;20020;-63
2024/02/09 11:00:25;;;;;;;10.07;3.50;;;11.10;99.90;;;;;;5087372;28;20035;-62
2024/02/09 11:02:51;;;;;;;4.28;2.38;;;11.20;99.90;;;;;;5087143;28;20056;-63
2024/02/09 11:05:17;;;;;;;5.90;3.15;;;11.20;99.90;;;;;;5087598;28;20127;-63
2024/02/09 11:07:49;;;;;;;3.42;2.53;;;11.20;99.90;;;;;;5089865;28;20264;-63
2024/02/09 11:10:18;;;;;;;8.55;4.05;;;11.20;99.90;;;;;;5088054;28;20028;-63
2024/02/09 11:12:55;;;;;;;15.02;5.28;;;11.10;99.90;;;;;;5090214;28;20734;-63
2024/02/09 11:15:21;;;;;;;14.43;6.43;;;11.10;99.90;;;;;;5084472;28;20157;-63
2024/02/09 11:17:48;;;;;;;28.63;9.23;;;11.10;99.90;;;;;;5085378;28;20154;-63
2024/02/09 11:20:14;;;;;;;26.45;9.02;;;11.10;99.90;;;;;;5085983;28;20072;-62
2024/02/09 11:22:49;;;;;;;38.38;11.45;;;11.10;99.90;;;;;;5062778;28;20123;-63
2024/02/09 11:25:16;;;;;;;10.68;5.20;;;11.10;99.90;;;;;;5081462;28;20028;-62
2024/02/09 11:27:51;;;;;;;18.27;6.85;;;11.20;99.90;;;;;;5082769;28;20749;-63
2024/02/09 11:30:21;;;;;;;9.63;4.30;;;11.20;99.90;;;;;;5083723;28;20021;-62
2024/02/09 11:32:51;;;;;;;18.50;7.55;;;11.20;99.90;;;;;;5084259;28;20122;-63
2024/02/09 11:35:17;;;;;;;19.50;7.28;;;11.20;99.90;;;;;;5084329;28;20020;-63
2024/02/09 11:37:47;;;;;;;10.25;5.45;;;11.20;99.90;;;;;;5084210;28;20036;-61
2024/02/09 11:40:15;;;;;;;17.60;4.47;;;11.20;99.90;;;;;;5086825;28;20101;-63
2024/02/09 11:42:41;;;;;;;10.45;4.22;;;11.20;99.90;;;;;;5089968;28;20016;-63
2024/02/09 11:45:09;;;;;;;15.82;5.90;;;11.30;99.90;;;;;;5093018;28;20062;-63
2024/02/09 11:47:37;;;;;;;13.40;4.47;;;11.30;99.90;;;;;;5086833;28;20020;-63
2024/02/09 11:50:03;;;;;;;14.38;6.05;;;11.40;99.90;;;;;;5088530;28;20055;-63
2024/02/09 11:52:29;;;;;;;12.55;5.82;;;11.50;99.90;;;;;;5089404;28;20032;-63
2024/02/09 11:54:55;;;;;;;9.55;4.40;;;11.50;99.90;;;;;;5089071;28;20047;-62
2024/02/09 11:57:21;;;;;;;11.38;5.32;;;11.50;99.90;;;;;;5087702;28;20020;-63
2024/02/09 11:59:46;;;;;;;9.55;3.88;;;11.50;99.90;;;;;;5084533;28;20039;-63
2024/02/09 12:02:13;;;;;;;9.80;4.40;;;11.50;99.90;;;;;;5086235;28;20069;-63
2024/02/09 12:04:39;;;;;;;13.45;5.22;;;11.50;99.90;;;;;;5085992;28;20036;-63
2024/02/09 12:07:05;;;;;;;11.55;4.88;;;11.40;99.90;;;;;;5088871;28;20539;-63
2024/02/09 12:09:31;;;;;;;14.70;5.43;;;11.40;99.90;;;;;;5086858;28;20024;-63
2024/02/09 12:11:56;;;;;;;11.05;3.92;;;11.40;99.90;;;;;;5089889;28;20037;-63
2024/02/09 12:14:22;;;;;;;18.05;7.28;;;11.40;99.90;;;;;;5087448;28;20035;-62
2024/02/09 12:16:47;;;;;;;21.60;9.10;;;11.40;99.90;;;;;;5085996;28;20452;-63
2024/02/09 12:19:13;;;;;;;27.90;9.88;;;11.30;99.90;;;;;;5084011;28;20036;-63
2024/02/09 12:21:39;;;;;;;16.42;5.88;;;11.30;99.90;;;;;;5086685;28;20028;-63
2024/02/09 12:24:09;;;;;;;15.27;5.35;;;11.30;99.90;;;;;;5057175;27;20089;-63
2024/02/09 12:26:37;;;;;;;10.50;4.53;;;11.30;99.90;;;;;;5084429;28;20409;-63
2024/02/09 12:29:10;;;;;;;16.95;7.93;;;11.30;99.90;;;;;;5088669;28;20020;-63
2024/02/09 12:31:36;;;;;;;9.77;3.90;;;11.30;99.90;;;;;;5086337;28;20040;-63
2024/02/09 12:34:02;;;;;;;15.32;4.88;;;11.30;99.90;;;;;;5084717;28;20115;-63
2024/02/09 12:36:27;;;;;;;10.05;3.92;;;11.30;99.90;;;;;;5084095;28;20489;-63
2024/02/09 12:38:58;;;;;;;8.93;3.35;;;11.30;99.90;;;;;;5084436;28;20032;-63
2024/02/09 12:41:27;;;;;;;9.23;3.90;;;11.30;99.90;;;;;;5085703;28;20719;-62
2024/02/09 12:43:57;;;;;;;10.13;3.53;;;11.30;99.90;;;;;;5090135;28;20059;-63
2024/02/09 12:46:26;;;;;;;11.75;5.20;;;11.20;99.90;;;;;;5089342;28;20104;-63
2024/02/09 12:48:51;;;;;;;14.30;3.67;;;11.30;99.90;;;;;;5086483;28;20056;-63
2024/02/09 12:51:18;;;;;;;12.00;5.35;;;11.30;99.90;;;;;;5085297;28;20460;-62
2024/02/09 12:53:44;;;;;;;13.38;5.13;;;11.30;99.90;;;;;;5085027;28;21487;-63
2024/02/09 12:56:11;;;;;;;9.52;3.55;;;11.50;99.90;;;;;;5087376;28;20066;-63
2024/02/09 12:58:37;;;;;;;12.98;4.90;;;11.60;99.90;;;;;;5086314;28;20036;-63
2024/02/09 13:01:03;;;;;;;20.38;8.88;;;11.80;99.90;;;;;;5083870;28;20016;-62
2024/02/09 13:03:29;;;;;;;9.82;4.75;;;11.80;99.90;;;;;;5087357;28;20103;-63
2024/02/09 13:05:54;;;;;;;9.82;3.65;;;11.80;99.90;;;;;;5087898;28;20457;-63
2024/02/09 13:08:23;;;;;;;9.43;4.30;;;11.80;99.90;;;;;;5086950;28;20035;-63
2024/02/09 13:10:49;;;;;;;21.38;6.45;;;11.70;99.90;;;;;;5089682;28;20430;-63
2024/02/09 13:13:17;;;;;;;15.48;6.82;;;11.70;99.90;;;;;;5087621;28;20031;-64
2024/02/09 13:15:43;;;;;;;16.52;7.68;;;11.70;99.90;;;;;;5091865;28;20386;-63
2024/02/09 13:18:10;;;;;;;12.73;6.53;;;11.60;99.90;;;;;;5090575;28;20031;-62
2024/02/09 13:20:36;;;;;;;11.20;4.72;;;11.60;99.90;;;;;;5089093;28;20024;-62
2024/02/09 13:23:02;;;;;;;10.93;6.00;;;11.70;99.90;;;;;;5065657;28;20101;-61
2024/02/09 13:25:33;;;;;;;13.52;5.20;;;11.70;99.90;;;;;;5083899;28;20038;-61
2024/02/09 13:27:59;;;;;;;13.52;5.72;;;11.80;99.90;;;;;;5086456;28;20074;-61
2024/02/09 13:30:28;;;;;;;16.80;4.00;;;11.70;99.90;;;;;;5087558;28;20040;-61
2024/02/09 13:32:54;;;;;;;9.32;4.43;;;11.70;99.90;;;;;;5089662;28;20036;-62
2024/02/09 13:35:20;;;;;;;9.68;5.32;;;11.70;99.90;;;;;;5091336;28;20028;-62
2024/02/09 13:37:46;;;;;;;8.32;3.75;;;11.70;99.90;;;;;;5089696;28;20438;-62
2024/02/09 13:40:15;;;;;;;10.48;4.63;;;11.80;99.90;;;;;;5088913;28;20024;-61
2024/02/09 13:42:45;;;;;;;17.25;8.57;;;11.80;99.90;;;;;;5087108;28;20039;-62
2024/02/09 13:45:14;;;;;;;19.10;7.90;;;11.80;99.90;;;;;;5086030;28;20482;-62
2024/02/09 13:47:43;;;;;;;15.10;6.28;;;11.80;99.90;;;;;;5089923;28;20108;-62
2024/02/09 13:50:11;;;;;;;19.27;7.72;;;11.80;99.90;;;;;;5091667;28;20035;-62
2024/02/09 13:52:40;;;;;;;24.50;11.07;;;11.80;99.90;;;;;;5090380;28;20016;-62
2024/02/09 13:55:12;;;;;;;41.05;16.27;;;11.90;99.90;;;;;;5071023;28;20728;-62
2024/02/09 13:57:45;;;;;;;34.80;11.02;;;11.90;99.90;;;;;;5089415;28;20416;-62
2024/02/09 14:00:12;;;;;;;57.80;18.50;;;12.00;99.90;;;;;;5090357;28;20521;-62
2024/02/09 14:02:38;;;;;;;39.15;12.77;;;12.10;99.90;;;;;;5089938;28;20024;-62
2024/02/09 14:05:04;;;;;;;94.43;29.48;;;12.20;99.90;;;;;;5090962;28;20020;-62
2024/02/09 14:07:30;;;;;;;65.30;20.13;;;12.20;99.90;;;;;;5084951;28;20107;-62
2024/02/09 14:09:55;;;;;;;48.45;13.82;;;12.20;99.90;;;;;;5090686;28;20039;-62
2024/02/09 14:12:23;;;;;;;36.15;14.68;;;12.20;99.90;;;;;;5085697;28;20062;-62
2024/02/09 14:14:49;;;;;;;13.93;6.10;;;12.20;99.90;;;;;;5089925;28;20268;-62
2024/02/09 14:17:15;;;;;;;14.88;5.80;;;12.20;99.90;;;;;;5085755;28;20040;-61
2024/02/09 14:19:44;;;;;;;25.45;9.65;;;12.30;99.90;;;;;;5090183;28;20031;-61
2024/02/09 14:22:12;;;;;;;17.35;7.18;;;12.40;99.90;;;;;;5084791;28;20498;-62
2024/02/09 14:24:38;;;;;;;28.20;10.43;;;12.40;99.90;;;;;;5070233;28;20549;-61
2024/02/09 14:27:11;;;;;;;32.70;10.93;;;12.40;99.90;;;;;;5085523;28;20035;-61
2024/02/09 14:29:39;;;;;;;40.55;13.65;;;12.40;99.90;;;;;;5089597;28;20030;-62
2024/02/09 14:32:08;;;;;;;62.30;20.08;;;12.40;99.90;;;;;;5086274;28;20054;-61
2024/02/09 14:34:34;;;;;;;28.85;10.25;;;12.40;99.90;;;;;;5090381;28;20089;-62
2024/02/09 14:37:00;;;;;;;18.25;7.43;;;12.30;99.90;;;;;;5089325;28;20482;-62